Main page
METAR-TAF:

METAR-TAF

Airports :

Mécheria Airport

Mécheria, Algeria

latitude: 34-56N, longitude: 000-26W, elevation: 1149 m

Current weather observation

The report was made 18 minutes ago, at 06:00 UTC
Wind 6 kt from the South
Temperature -4°C
Humidity 100%
Pressure 1031 hPa
Visibility: 3000 m
Few clouds at a height of 1000 ft
mist

METAR: DAAY 170600Z 19006KT 3000 BR FEW010 M04/M04 Q1031

Time: 07:18 (06:18 UTC)

Forecast

The report was made 1 hour and 18 minutes ago, at 05:00 UTC
Forecast valid from 17 at 06 UTC to 17 at 15 UTC
Wind 2 kt from variable directions
Visibility: 0800 m
Broken clouds at a height of 600 ft
fog
Becoming
from 17 at 08 UTC to 17 at 10 UTC
Wind 10 kt from the West
Visibility: 4000 m
Broken clouds at a height of 1000 ft
mist
Becoming
from 17 at 11 UTC to 17 at 12 UTC
Visibility: 8000 m

TAF: DAAY 170500Z 1706/1715 VRB02KT 0800 FG BKN006 BECMG 1708/1710 28010KT 4000 BR BKN010 BECMG 1711/1712 8000 NSC

Weather observations and forecasts of more than 4000 airports (METAR and TAF reports).

The available stations are represented by yellow and red dots on the map.

Hover mouse over dot to see the name of the station.

Then click to see weather observations and forecasts.

To change the map : click on the green buttons with a black cross to zoom in, on the green button with a dash to zoom out, or on the green arrows for adjacent maps.


METAR-TAF: